Time;durP1;ratioP1;P1;durP2;ratioP2;P2;SDS_P1;SDS_P2;PMS_P1;PMS_P2;Temp;Humidity;BMP_temperature;BMP_pressure;BME280_temperature;BME280_humidity;BME280_pressure;Samples;Min_cycle;Max_cycle;Signal;HPM_P1;HPM_P2
2021/12/30 00:02:25;;;;;;;14.48;5.90;;;;;;;;;;5017543;28;20065;-81
2021/12/30 00:04:51;;;;;;;14.98;5.20;;;;;;;;;;5019945;28;20152;-81
2021/12/30 00:07:18;;;;;;;12.40;5.57;;;;;;;;;;5020148;28;20033;-81
2021/12/30 00:09:44;;;;;;;15.80;5.20;;;;;;;;;;5020138;28;20029;-81
2021/12/30 00:12:10;;;;;;;11.48;4.47;;;;;;;;;;5020345;28;20033;-81
2021/12/30 00:14:36;;;;;;;12.70;4.70;;;;;;;;;;5020302;28;20527;-81
2021/12/30 00:17:03;;;;;;;10.98;4.50;;;;;;;;;;5020398;28;20061;-81
2021/12/30 00:19:30;;;;;;;23.98;12.30;;;;;;;;;;5037848;28;20029;-81
2021/12/30 00:21:56;;;;;;;60.15;33.17;;;;;;;;;;5019759;28;20044;-81
2021/12/30 00:24:22;;;;;;;54.35;30.85;;;;;;;;;;5019635;28;20038;-81
2021/12/30 00:26:49;;;;;;;46.00;27.38;;;;;;;;;;5037323;28;20029;-81
2021/12/30 00:29:16;;;;;;;33.45;17.98;;;;;;;;;;5019423;28;20041;-81
2021/12/30 00:31:42;;;;;;;20.67;12.32;;;;;;;;;;5019176;28;20128;-81
2021/12/30 00:34:08;;;;;;;23.60;11.48;;;;;;;;;;5019359;28;20092;-81
2021/12/30 00:36:34;;;;;;;13.95;6.45;;;;;;;;;;5019092;28;20033;-81
2021/12/30 00:39:01;;;;;;;15.80;6.47;;;;;;;;;;5019268;28;20033;-84
2021/12/30 00:41:27;;;;;;;22.67;7.05;;;;;;;;;;5019011;28;20037;-81
2021/12/30 00:43:53;;;;;;;16.85;6.82;;;;;;;;;;5019167;28;20148;-81
2021/12/30 00:46:20;;;;;;;18.75;7.72;;;;;;;;;;5018946;28;20075;-81
2021/12/30 00:48:46;;;;;;;21.83;8.20;;;;;;;;;;5018975;28;20064;-81
2021/12/30 00:51:12;;;;;;;20.63;7.80;;;;;;;;;;5018785;28;20427;-81
2021/12/30 00:53:39;;;;;;;19.48;8.13;;;;;;;;;;5018643;28;20092;-82
2021/12/30 00:56:05;;;;;;;23.13;8.25;;;;;;;;;;5018860;28;20455;-81
2021/12/30 00:58:31;;;;;;;17.73;7.15;;;;;;;;;;5036550;28;20026;-81
2021/12/30 01:00:59;;;;;;;18.23;6.97;;;;;;;;;;5018645;28;20034;-81
2021/12/30 01:03:27;;;;;;;12.68;5.80;;;;;;;;;;5018980;28;20121;-81
2021/12/30 01:05:54;;;;;;;14.85;5.47;;;;;;;;;;5018493;28;20041;-81
2021/12/30 01:08:20;;;;;;;12.48;5.22;;;;;;;;;;5018536;28;20065;-81
2021/12/30 01:10:47;;;;;;;14.63;5.03;;;;;;;;;;5018674;28;20033;-81
2021/12/30 01:13:23;;;;;;;12.48;4.50;;;;;;;;;;5017553;28;20384;-81
2021/12/30 01:16:01;;;;;;;19.15;6.07;;;;;;;;;;5018495;28;20030;-81
2021/12/30 01:18:54;;;;;;;14.25;5.63;;;;;;;;;;5018471;28;20124;-81
2021/12/30 01:21:22;;;;;;;16.40;6.72;;;;;;;;;;5018293;28;20047;-81
2021/12/30 01:23:48;;;;;;;14.40;5.28;;;;;;;;;;5018322;28;20068;-81
2021/12/30 01:26:14;;;;;;;14.32;4.70;;;;;;;;;;5018022;28;20555;-81
2021/12/30 01:28:41;;;;;;;14.65;5.72;;;;;;;;;;5018231;28;20133;-81
2021/12/30 01:31:08;;;;;;;13.85;4.65;;;;;;;;;;5017988;28;20057;-81
2021/12/30 01:33:34;;;;;;;18.98;5.85;;;;;;;;;;5018070;28;20046;-81
2021/12/30 01:36:00;;;;;;;14.02;5.07;;;;;;;;;;5036132;28;20030;-80
2021/12/30 01:38:27;;;;;;;14.63;5.55;;;;;;;;;;5035816;28;20480;-81
2021/12/30 01:40:54;;;;;;;17.65;6.18;;;;;;;;;;5035756;28;20033;-81
2021/12/30 01:43:21;;;;;;;12.98;4.85;;;;;;;;;;5017929;28;20041;-81
2021/12/30 01:45:47;;;;;;;14.82;6.10;;;;;;;;;;5017848;28;20059;-81
2021/12/30 01:48:14;;;;;;;16.90;5.95;;;;;;;;;;5018024;28;20029;-81
2021/12/30 01:50:40;;;;;;;16.85;5.15;;;;;;;;;;5035997;28;20079;-81
2021/12/30 01:53:06;;;;;;;16.52;5.05;;;;;;;;;;5036035;28;20054;-81
2021/12/30 01:55:34;;;;;;;15.80;5.13;;;;;;;;;;5018207;28;20361;-81
2021/12/30 01:58:01;;;;;;;17.23;5.30;;;;;;;;;;5035810;28;20108;-81
2021/12/30 02:00:28;;;;;;;17.10;5.20;;;;;;;;;;5035502;28;20029;-81
2021/12/30 02:02:54;;;;;;;14.85;4.70;;;;;;;;;;5017686;28;20041;-81
2021/12/30 02:05:21;;;;;;;13.90;4.82;;;;;;;;;;5017693;28;20038;-81
2021/12/30 02:07:48;;;;;;;13.70;5.13;;;;;;;;;;5017424;28;20034;-81
2021/12/30 02:10:15;;;;;;;19.42;5.88;;;;;;;;;;5035410;28;20068;-81
2021/12/30 02:12:42;;;;;;;18.30;6.07;;;;;;;;;;5035357;28;20037;-81
2021/12/30 02:15:10;;;;;;;15.90;5.53;;;;;;;;;;5035227;28;20034;-81
2021/12/30 02:17:37;;;;;;;14.32;5.57;;;;;;;;;;5017490;28;20037;-81
2021/12/30 02:20:11;;;;;;;18.40;6.35;;;;;;;;;;5035287;28;20034;-81
2021/12/30 02:22:37;;;;;;;15.93;5.97;;;;;;;;;;5035278;28;20033;-81
2021/12/30 02:25:04;;;;;;;18.45;6.55;;;;;;;;;;5017098;28;20037;-81
2021/12/30 02:27:31;;;;;;;20.83;7.00;;;;;;;;;;5017239;28;20029;-81
2021/12/30 02:29:57;;;;;;;19.20;7.35;;;;;;;;;;5034673;28;20481;-81
2021/12/30 02:32:27;;;;;;;18.08;6.57;;;;;;;;;;5017019;28;20137;-81
2021/12/30 02:34:54;;;;;;;16.95;7.20;;;;;;;;;;5017130;28;20034;-81
2021/12/30 02:37:20;;;;;;;23.52;6.18;;;;;;;;;;5017127;28;20037;-81
2021/12/30 02:39:52;;;;;;;19.08;6.72;;;;;;;;;;5017063;28;20033;-80
2021/12/30 02:42:24;;;;;;;19.38;8.07;;;;;;;;;;5016927;28;20049;-81
2021/12/30 02:44:50;;;;;;;21.00;7.85;;;;;;;;;;5016947;28;20057;-81
2021/12/30 02:47:17;;;;;;;20.75;9.18;;;;;;;;;;5016943;28;20034;-81
2021/12/30 02:49:43;;;;;;;38.17;14.70;;;;;;;;;;5034632;28;20350;-81
2021/12/30 02:52:10;;;;;;;41.13;18.25;;;;;;;;;;5016834;28;20090;-81
2021/12/30 02:54:39;;;;;;;48.88;20.15;;;;;;;;;;5016728;28;20467;-81
2021/12/30 02:57:05;;;;;;;47.03;18.85;;;;;;;;;;5016781;28;20087;-81
2021/12/30 02:59:31;;;;;;;38.78;16.15;;;;;;;;;;5034676;28;20030;-81
2021/12/30 03:01:58;;;;;;;35.85;14.93;;;;;;;;;;5016550;28;20488;-81
2021/12/30 03:04:26;;;;;;;35.95;14.57;;;;;;;;;;5016667;28;20092;-81
2021/12/30 03:06:53;;;;;;;38.80;15.20;;;;;;;;;;5034203;28;20129;-81
2021/12/30 03:09:19;;;;;;;35.83;14.88;;;;;;;;;;5034254;28;20033;-81
2021/12/30 03:11:45;;;;;;;38.25;15.38;;;;;;;;;;5016565;28;20040;-81
2021/12/30 03:14:12;;;;;;;39.28;16.85;;;;;;;;;;5016582;28;20025;-81
2021/12/30 03:16:41;;;;;;;34.63;16.73;;;;;;;;;;5016442;28;20033;-81
2021/12/30 03:19:07;;;;;;;47.20;20.45;;;;;;;;;;5016439;28;20030;-81
2021/12/30 03:21:34;;;;;;;51.47;22.15;;;;;;;;;;5016303;28;20041;-81
2021/12/30 03:24:02;;;;;;;41.95;20.90;;;;;;;;;;5034106;28;20025;-81
2021/12/30 03:26:28;;;;;;;39.50;19.25;;;;;;;;;;5016356;28;20029;-81
2021/12/30 03:28:54;;;;;;;39.05;19.27;;;;;;;;;;5016352;28;20036;-82
2021/12/30 03:31:21;;;;;;;56.78;22.02;;;;;;;;;;5016264;28;20081;-81
2021/12/30 03:33:47;;;;;;;64.45;25.38;;;;;;;;;;5016489;28;20054;-82
2021/12/30 03:36:15;;;;;;;64.80;27.10;;;;;;;;;;5015662;28;20025;-82
2021/12/30 03:38:44;;;;;;;91.32;35.80;;;;;;;;;;5016170;28;20037;-82
2021/12/30 03:41:11;;;;;;;92.28;37.60;;;;;;;;;;5016147;28;20108;-82
2021/12/30 03:43:38;;;;;;;83.88;33.88;;;;;;;;;;5034020;28;20561;-82
2021/12/30 03:46:05;;;;;;;79.43;37.28;;;;;;;;;;5016050;28;20091;-82
2021/12/30 03:48:33;;;;;;;84.93;30.80;;;;;;;;;;5016076;28;20041;-82
2021/12/30 03:51:05;;;;;;;68.55;30.17;;;;;;;;;;5016040;28;20103;-82
2021/12/30 03:53:32;;;;;;;65.05;27.77;;;;;;;;;;5016111;28;20034;-82
2021/12/30 03:55:58;;;;;;;64.07;26.58;;;;;;;;;;5015870;28;20506;-82
2021/12/30 03:58:24;;;;;;;65.07;28.92;;;;;;;;;;5016036;28;20091;-82
2021/12/30 04:00:50;;;;;;;70.25;28.90;;;;;;;;;;5015987;28;20034;-82
2021/12/30 04:03:17;;;;;;;66.70;27.30;;;;;;;;;;5015804;28;20156;-83
2021/12/30 04:05:44;;;;;;;69.25;30.15;;;;;;;;;;5015987;28;20029;-82
2021/12/30 04:08:11;;;;;;;66.82;27.83;;;;;;;;;;5015872;28;20033;-82
2021/12/30 04:10:38;;;;;;;62.40;27.15;;;;;;;;;;5015795;28;20030;-82
2021/12/30 04:13:04;;;;;;;68.53;28.45;;;;;;;;;;5033517;28;20037;-83
2021/12/30 04:15:30;;;;;;;69.30;27.25;;;;;;;;;;5015942;28;20057;-83
2021/12/30 04:17:57;;;;;;;58.58;25.67;;;;;;;;;;5015807;28;20399;-82
2021/12/30 04:20:23;;;;;;;53.00;21.77;;;;;;;;;;5015874;28;20053;-83
2021/12/30 04:22:49;;;;;;;58.20;20.80;;;;;;;;;;5015435;28;20553;-82
2021/12/30 04:25:16;;;;;;;49.90;19.55;;;;;;;;;;5015734;28;20067;-83
2021/12/30 04:27:42;;;;;;;65.20;19.38;;;;;;;;;;5033529;28;20467;-83
2021/12/30 04:30:09;;;;;;;50.38;17.70;;;;;;;;;;5015667;28;20034;-83
2021/12/30 04:32:36;;;;;;;44.38;17.63;;;;;;;;;;5015550;28;20053;-83
2021/12/30 04:35:03;;;;;;;41.70;18.05;;;;;;;;;;5015719;28;20060;-83
2021/12/30 04:37:29;;;;;;;44.75;17.63;;;;;;;;;;5015629;28;20472;-83
2021/12/30 04:39:55;;;;;;;40.10;16.55;;;;;;;;;;5015609;28;20061;-83
2021/12/30 04:42:21;;;;;;;38.55;15.45;;;;;;;;;;5015490;28;20044;-83
2021/12/30 04:44:48;;;;;;;41.42;16.58;;;;;;;;;;5015570;28;20034;-83
2021/12/30 04:47:15;;;;;;;39.45;15.90;;;;;;;;;;5033205;28;20033;-83
2021/12/30 04:49:41;;;;;;;35.50;16.00;;;;;;;;;;5019121;28;20388;-83
2021/12/30 04:52:07;;;;;;;47.80;18.58;;;;;;;;;;5019171;28;20071;-83
2021/12/30 04:54:34;;;;;;;47.05;18.52;;;;;;;;;;5019258;28;20067;-83
2021/12/30 04:57:00;;;;;;;46.08;19.08;;;;;;;;;;5019362;28;20168;-83
2021/12/30 04:59:26;;;;;;;45.17;19.45;;;;;;;;;;5019047;28;20037;-84
2021/12/30 05:01:53;;;;;;;47.88;19.30;;;;;;;;;;5018896;28;20049;-83
2021/12/30 05:04:19;;;;;;;54.80;21.10;;;;;;;;;;5018984;28;20036;-83
2021/12/30 05:06:46;;;;;;;52.08;21.15;;;;;;;;;;5036787;28;20480;-84
2021/12/30 05:09:12;;;;;;;52.38;22.20;;;;;;;;;;5018883;28;20120;-84
2021/12/30 05:11:41;;;;;;;57.58;22.92;;;;;;;;;;5036588;28;20044;-83
2021/12/30 05:14:08;;;;;;;56.63;22.85;;;;;;;;;;5018717;28;20041;-83
2021/12/30 05:16:35;;;;;;;56.58;24.35;;;;;;;;;;5018762;28;20096;-83
2021/12/30 05:19:01;;;;;;;46.92;21.70;;;;;;;;;;5036901;28;20491;-83
2021/12/30 05:21:27;;;;;;;57.03;23.00;;;;;;;;;;5018604;28;20107;-83
2021/12/30 05:23:54;;;;;;;59.05;27.27;;;;;;;;;;5018629;28;20072;-83
2021/12/30 05:26:22;;;;;;;65.53;26.13;;;;;;;;;;5018483;28;20552;-83
2021/12/30 05:28:49;;;;;;;50.20;23.98;;;;;;;;;;5036504;28;20038;-83
2021/12/30 05:31:15;;;;;;;67.45;28.42;;;;;;;;;;5018604;28;20490;-83
2021/12/30 05:33:41;;;;;;;64.55;26.25;;;;;;;;;;5018480;28;20069;-83
2021/12/30 05:36:08;;;;;;;64.75;26.52;;;;;;;;;;5018335;28;20033;-83
2021/12/30 05:38:34;;;;;;;65.25;26.30;;;;;;;;;;5018441;28;20040;-83
2021/12/30 05:41:00;;;;;;;60.33;25.90;;;;;;;;;;5018221;28;20038;-83
2021/12/30 05:43:26;;;;;;;53.58;23.42;;;;;;;;;;5018399;28;20040;-84
2021/12/30 05:45:53;;;;;;;52.17;22.02;;;;;;;;;;5018331;28;20036;-84
2021/12/30 05:48:19;;;;;;;56.47;23.15;;;;;;;;;;5018237;28;20116;-83
2021/12/30 05:50:45;;;;;;;58.30;23.30;;;;;;;;;;5018184;28;20025;-84
2021/12/30 05:53:12;;;;;;;49.95;21.25;;;;;;;;;;5018250;28;20043;-84
2021/12/30 05:55:38;;;;;;;53.22;21.50;;;;;;;;;;5017983;28;20122;-84
2021/12/30 05:58:04;;;;;;;54.55;22.33;;;;;;;;;;5017871;28;20120;-84
2021/12/30 06:00:32;;;;;;;50.35;21.25;;;;;;;;;;5017404;28;20057;-84
2021/12/30 06:02:59;;;;;;;45.83;20.10;;;;;;;;;;5017835;28;20049;-84
2021/12/30 06:05:26;;;;;;;42.50;19.27;;;;;;;;;;5035659;28;20040;-83
2021/12/30 06:07:52;;;;;;;43.42;19.58;;;;;;;;;;5017614;28;20038;-83
2021/12/30 06:10:19;;;;;;;46.17;20.67;;;;;;;;;;5035506;28;20029;-84
2021/12/30 06:12:46;;;;;;;54.80;25.38;;;;;;;;;;5017709;28;20468;-84
2021/12/30 06:15:13;;;;;;;78.68;26.48;;;;;;;;;;5017670;28;20056;-84
2021/12/30 06:17:41;;;;;;;72.55;30.23;;;;;;;;;;5035374;28;20415;-83
2021/12/30 06:20:13;;;;;;;74.13;32.40;;;;;;;;;;5017603;28;20041;-84
2021/12/30 06:22:39;;;;;;;66.22;30.30;;;;;;;;;;5035330;28;20048;-83
2021/12/30 06:25:06;;;;;;;65.95;29.30;;;;;;;;;;5017404;28;20029;-84
2021/12/30 06:27:32;;;;;;;70.93;27.70;;;;;;;;;;5035106;28;20087;-83
2021/12/30 06:29:59;;;;;;;54.78;24.40;;;;;;;;;;5017354;28;20492;-83
2021/12/30 06:32:25;;;;;;;72.72;29.73;;;;;;;;;;5017038;28;20476;-83
2021/12/30 06:34:51;;;;;;;83.15;34.25;;;;;;;;;;5017292;28;20038;-83
2021/12/30 06:37:18;;;;;;;78.03;33.88;;;;;;;;;;5017195;28;20096;-83
2021/12/30 06:39:44;;;;;;;80.82;38.47;;;;;;;;;;5017088;28;20096;-83
2021/12/30 06:42:11;;;;;;;159.77;71.18;;;;;;;;;;5017155;28;20500;-82
2021/12/30 06:44:37;;;;;;;159.38;67.05;;;;;;;;;;5034746;28;20048;-83
2021/12/30 06:47:05;;;;;;;201.48;88.65;;;;;;;;;;5016865;28;20091;-83
2021/12/30 06:49:36;;;;;;;192.75;87.03;;;;;;;;;;5016955;28;20030;-83
2021/12/30 06:52:07;;;;;;;178.18;82.53;;;;;;;;;;5016884;28;20044;-83
2021/12/30 06:54:34;;;;;;;166.10;76.15;;;;;;;;;;5035110;28;20556;-83
2021/12/30 06:57:00;;;;;;;154.52;72.18;;;;;;;;;;5016939;28;20025;-84
2021/12/30 06:59:30;;;;;;;177.68;78.28;;;;;;;;;;5034655;28;20045;-83
2021/12/30 07:01:57;;;;;;;162.90;78.72;;;;;;;;;;5034555;28;20044;-83
2021/12/30 07:04:26;;;;;;;177.32;81.70;;;;;;;;;;5016731;28;20388;-83
2021/12/30 07:06:53;;;;;;;193.27;80.28;;;;;;;;;;5016568;28;20069;-83
2021/12/30 07:09:21;;;;;;;188.60;83.70;;;;;;;;;;5034624;28;20098;-83
2021/12/30 07:11:49;;;;;;;177.07;80.05;;;;;;;;;;5015749;28;20144;-83
2021/12/30 07:14:18;;;;;;;175.02;83.72;;;;;;;;;;5016391;28;20536;-83
2021/12/30 07:16:44;;;;;;;184.88;89.88;;;;;;;;;;5016546;28;20579;-83
2021/12/30 07:19:11;;;;;;;191.48;87.60;;;;;;;;;;5016375;28;20029;-82
2021/12/30 07:21:37;;;;;;;188.13;87.93;;;;;;;;;;5016362;28;20048;-83
2021/12/30 07:24:04;;;;;;;234.70;107.65;;;;;;;;;;5016397;28;20030;-83
2021/12/30 07:26:30;;;;;;;206.90;99.80;;;;;;;;;;5016287;28;20052;-83
2021/12/30 07:28:57;;;;;;;209.43;98.85;;;;;;;;;;5016287;28;20507;-83
2021/12/30 07:31:23;;;;;;;224.68;102.80;;;;;;;;;;5016289;28;20033;-83
2021/12/30 07:33:49;;;;;;;226.80;104.82;;;;;;;;;;5016133;28;20053;-83
2021/12/30 07:36:15;;;;;;;226.95;106.32;;;;;;;;;;5016081;28;20472;-83
2021/12/30 07:38:42;;;;;;;254.35;115.70;;;;;;;;;;5033686;28;20029;-82
2021/12/30 07:41:08;;;;;;;251.57;116.75;;;;;;;;;;5033591;28;20403;-83
2021/12/30 07:43:34;;;;;;;250.38;116.47;;;;;;;;;;5016106;28;20057;-83
2021/12/30 07:46:01;;;;;;;250.50;120.07;;;;;;;;;;5016060;28;20026;-85
2021/12/30 07:48:28;;;;;;;255.05;118.28;;;;;;;;;;5015969;28;20033;-83
2021/12/30 07:50:54;;;;;;;251.82;119.55;;;;;;;;;;5033813;28;20029;-83
2021/12/30 07:53:21;;;;;;;249.38;117.95;;;;;;;;;;5034001;28;20037;-83
2021/12/30 07:55:47;;;;;;;254.43;121.82;;;;;;;;;;5016025;28;20037;-83
2021/12/30 07:58:14;;;;;;;250.27;118.10;;;;;;;;;;5016013;28;20084;-82
2021/12/30 08:00:40;;;;;;;251.57;116.30;;;;;;;;;;5015991;28;20067;-82
2021/12/30 08:03:06;;;;;;;256.38;122.28;;;;;;;;;;5015860;28;20369;-82
2021/12/30 08:05:33;;;;;;;260.00;117.90;;;;;;;;;;5015946;28;20029;-83
2021/12/30 08:07:59;;;;;;;244.98;117.85;;;;;;;;;;5015822;28;20120;-82
2021/12/30 08:10:26;;;;;;;244.52;116.97;;;;;;;;;;5015801;28;20037;-82
2021/12/30 08:12:54;;;;;;;242.57;115.53;;;;;;;;;;5015902;28;20065;-83
2021/12/30 08:15:20;;;;;;;245.73;116.97;;;;;;;;;;5015780;28;20051;-83
2021/12/30 08:17:47;;;;;;;250.70;117.93;;;;;;;;;;5015829;28;20029;-83
2021/12/30 08:20:15;;;;;;;254.00;114.38;;;;;;;;;;5015775;28;20392;-83
2021/12/30 08:22:42;;;;;;;253.63;114.97;;;;;;;;;;5016221;28;20047;-82
2021/12/30 08:25:09;;;;;;;250.32;117.78;;;;;;;;;;5019650;28;20040;-82
2021/12/30 08:27:35;;;;;;;236.40;114.00;;;;;;;;;;5019697;28;20036;-83
2021/12/30 08:30:02;;;;;;;235.98;115.28;;;;;;;;;;5019466;28;20079;-83
2021/12/30 08:32:28;;;;;;;238.55;111.28;;;;;;;;;;5019333;28;20053;-83
2021/12/30 08:34:54;;;;;;;241.15;113.90;;;;;;;;;;5037196;28;20034;-83
2021/12/30 08:37:21;;;;;;;242.30;113.75;;;;;;;;;;5037333;28;20029;-83
2021/12/30 08:39:47;;;;;;;244.50;115.05;;;;;;;;;;5019384;28;20026;-82
2021/12/30 08:42:20;;;;;;;236.43;112.13;;;;;;;;;;5019254;28;20046;-83
2021/12/30 08:44:47;;;;;;;235.95;114.72;;;;;;;;;;5019391;28;20764;-83
2021/12/30 08:47:14;;;;;;;217.50;106.47;;;;;;;;;;5019272;28;20026;-83
2021/12/30 08:49:46;;;;;;;219.98;107.22;;;;;;;;;;5019261;28;20058;-82
2021/12/30 08:52:16;;;;;;;221.00;104.32;;;;;;;;;;5019274;28;20102;-82
2021/12/30 08:54:42;;;;;;;223.45;108.13;;;;;;;;;;5019146;28;20036;-83
2021/12/30 08:57:09;;;;;;;215.23;102.72;;;;;;;;;;5036803;28;20084;-82
2021/12/30 08:59:35;;;;;;;239.85;113.32;;;;;;;;;;5037100;28;20041;-83
2021/12/30 09:02:02;;;;;;;225.98;109.80;;;;;;;;;;5018871;28;20460;-82
2021/12/30 09:04:28;;;;;;;213.30;105.43;;;;;;;;;;5018880;28;20029;-83
2021/12/30 09:06:55;;;;;;;218.15;103.30;;;;;;;;;;5036589;28;20488;-83
2021/12/30 09:09:21;;;;;;;226.65;109.63;;;;;;;;;;5036728;28;20041;-82
2021/12/30 09:11:47;;;;;;;229.55;111.72;;;;;;;;;;5018666;28;20392;-82
2021/12/30 09:14:14;;;;;;;240.43;114.53;;;;;;;;;;5036992;28;20056;-83
2021/12/30 09:16:44;;;;;;;237.63;112.75;;;;;;;;;;5018753;28;20033;-83
2021/12/30 09:19:11;;;;;;;218.00;104.15;;;;;;;;;;5018697;28;20029;-82
2021/12/30 09:21:38;;;;;;;226.30;106.28;;;;;;;;;;5036445;28;20427;-83
2021/12/30 09:24:05;;;;;;;233.73;109.85;;;;;;;;;;5018579;28;20175;-82
2021/12/30 09:26:31;;;;;;;228.50;106.70;;;;;;;;;;5018539;28;20480;-82
2021/12/30 09:28:58;;;;;;;212.43;102.75;;;;;;;;;;5018462;28;20037;-83
2021/12/30 09:31:24;;;;;;;219.35;101.45;;;;;;;;;;5018490;28;20112;-83
2021/12/30 09:33:50;;;;;;;222.60;103.68;;;;;;;;;;5018073;28;20061;-83
2021/12/30 09:36:17;;;;;;;223.70;105.45;;;;;;;;;;5017698;28;20025;-83
2021/12/30 09:38:43;;;;;;;221.95;103.43;;;;;;;;;;5018254;28;20080;-83
2021/12/30 09:41:11;;;;;;;203.20;94.70;;;;;;;;;;5018228;28;20057;-83
2021/12/30 09:43:37;;;;;;;206.48;96.30;;;;;;;;;;5018217;28;20044;-83
2021/12/30 09:46:03;;;;;;;213.43;103.82;;;;;;;;;;5018266;28;20029;-82
2021/12/30 09:48:30;;;;;;;231.27;109.50;;;;;;;;;;5018156;28;20083;-82
2021/12/30 09:50:56;;;;;;;226.50;111.53;;;;;;;;;;5018234;28;20057;-82
2021/12/30 09:53:24;;;;;;;208.75;103.80;;;;;;;;;;5017894;28;20034;-82
2021/12/30 09:55:51;;;;;;;204.50;96.78;;;;;;;;;;5035467;28;20083;-82
2021/12/30 09:58:18;;;;;;;208.00;92.15;;;;;;;;;;5017944;28;20041;-83
2021/12/30 10:00:45;;;;;;;221.65;98.88;;;;;;;;;;5017927;28;20025;-82
2021/12/30 10:03:11;;;;;;;215.82;96.65;;;;;;;;;;5017797;28;20053;-83
2021/12/30 10:05:39;;;;;;;212.52;92.38;;;;;;;;;;5017818;28;20042;-82
2021/12/30 10:08:20;;;;;;;222.30;95.45;;;;;;;;;;5035115;28;20104;-83
2021/12/30 10:10:50;;;;;;;216.82;94.70;;;;;;;;;;5035227;28;20030;-83
2021/12/30 10:13:22;;;;;;;208.35;94.57;;;;;;;;;;5017674;28;20088;-83
2021/12/30 10:15:51;;;;;;;212.65;94.13;;;;;;;;;;5017606;28;20446;-83
2021/12/30 10:18:18;;;;;;;212.73;95.43;;;;;;;;;;5017501;28;20495;-83
2021/12/30 10:20:45;;;;;;;206.77;94.00;;;;;;;;;;5017427;28;20026;-82
2021/12/30 10:23:13;;;;;;;219.25;94.80;;;;;;;;;;5017369;28;20172;-83
2021/12/30 10:25:44;;;;;;;224.75;97.38;;;;;;;;;;5017413;28;20060;-83
2021/12/30 10:28:22;;;;;;;234.65;101.40;;;;;;;;;;5017284;28;20033;-83
2021/12/30 10:30:49;;;;;;;238.73;103.28;;;;;;;;;;5017222;28;20037;-83
2021/12/30 10:33:16;;;;;;;251.93;106.97;;;;;;;;;;5017038;28;20053;-83
2021/12/30 10:35:43;;;;;;;229.75;95.35;;;;;;;;;;5017238;28;20037;-83
2021/12/30 10:38:11;;;;;;;253.02;98.93;;;;;;;;;;5017631;28;20025;-83
2021/12/30 10:40:39;;;;;;;255.60;102.35;;;;;;;;;;5017185;28;20053;-83
2021/12/30 10:43:17;;;;;;;273.90;106.45;;;;;;;;;;5017020;28;20036;-83
2021/12/30 10:45:44;;;;;;;255.75;104.70;;;;;;;;;;5016681;28;20060;-83
2021/12/30 10:48:11;;;;;;;259.23;105.35;;;;;;;;;;5016939;28;20033;-83
2021/12/30 10:50:37;;;;;;;261.20;100.47;;;;;;;;;;5016964;28;20384;-83
2021/12/30 10:53:03;;;;;;;251.75;101.05;;;;;;;;;;5016958;28;20037;-83
2021/12/30 10:55:33;;;;;;;287.88;112.05;;;;;;;;;;5016877;28;20037;-83
2021/12/30 10:57:59;;;;;;;267.48;110.85;;;;;;;;;;5016778;28;20036;-83
2021/12/30 11:00:30;;;;;;;304.08;124.60;;;;;;;;;;5016780;28;20476;-83
2021/12/30 11:03:16;;;;;;;323.63;124.70;;;;;;;;;;5034924;28;20447;-83
2021/12/30 11:06:03;;;;;;;304.50;121.28;;;;;;;;;;5016636;28;20034;-83
2021/12/30 11:08:29;;;;;;;357.98;138.43;;;;;;;;;;5034140;28;20041;-83
2021/12/30 11:10:55;;;;;;;336.83;133.88;;;;;;;;;;5016586;28;20116;-82
2021/12/30 11:13:23;;;;;;;312.02;123.15;;;;;;;;;;5016643;28;20111;-83
2021/12/30 11:16:01;;;;;;;313.70;123.03;;;;;;;;;;5016513;28;20029;-83
2021/12/30 11:18:40;;;;;;;370.27;137.70;;;;;;;;;;5016334;28;20132;-83
2021/12/30 11:21:06;;;;;;;354.77;135.23;;;;;;;;;;5016567;28;20379;-83
2021/12/30 11:23:33;;;;;;;379.52;140.73;;;;;;;;;;5016370;28;20090;-83
2021/12/30 11:25:59;;;;;;;373.95;139.70;;;;;;;;;;5016407;28;20033;-83
2021/12/30 11:28:26;;;;;;;398.67;145.45;;;;;;;;;;5016294;28;20041;-82
2021/12/30 11:30:52;;;;;;;392.52;145.45;;;;;;;;;;5016324;28;20056;-83
2021/12/30 11:33:19;;;;;;;391.45;140.70;;;;;;;;;;5034222;28;20395;-83
2021/12/30 11:35:45;;;;;;;416.08;148.25;;;;;;;;;;5016337;28;20037;-83
2021/12/30 11:38:12;;;;;;;430.30;150.02;;;;;;;;;;5016265;28;20032;-83
2021/12/30 11:40:38;;;;;;;408.63;145.77;;;;;;;;;;5033911;28;20040;-82
2021/12/30 11:43:12;;;;;;;423.33;147.63;;;;;;;;;;5016129;28;20519;-83
2021/12/30 11:45:39;;;;;;;422.05;154.23;;;;;;;;;;5033883;28;20044;-83
2021/12/30 11:48:22;;;;;;;426.35;150.35;;;;;;;;;;5015991;28;20559;-82
2021/12/30 11:50:48;;;;;;;447.02;167.52;;;;;;;;;;5016154;28;20030;-82
2021/12/30 11:53:24;;;;;;;441.95;157.63;;;;;;;;;;5016087;28;20037;-82
2021/12/30 11:55:59;;;;;;;471.38;165.52;;;;;;;;;;5015981;28;20030;-83
2021/12/30 11:58:32;;;;;;;438.23;160.75;;;;;;;;;;5015305;28;20472;-83
2021/12/30 12:01:13;;;;;;;427.15;154.18;;;;;;;;;;5015980;28;20107;-82
2021/12/30 12:03:44;;;;;;;456.92;159.45;;;;;;;;;;5033642;28;20109;-82
2021/12/30 12:06:26;;;;;;;485.80;167.90;;;;;;;;;;5033740;28;20034;-83
2021/12/30 12:08:56;;;;;;;501.98;170.30;;;;;;;;;;5015447;28;20484;-82
2021/12/30 12:11:29;;;;;;;511.60;175.65;;;;;;;;;;5015973;28;20038;-82
2021/12/30 12:14:10;;;;;;;530.20;183.70;;;;;;;;;;5015720;28;20076;-82
2021/12/30 12:16:47;;;;;;;549.47;185.38;;;;;;;;;;5015962;28;20030;-82
2021/12/30 12:19:14;;;;;;;525.88;181.05;;;;;;;;;;5015777;28;20037;-82
2021/12/30 12:21:51;;;;;;;527.15;182.98;;;;;;;;;;5015697;28;20486;-82
2021/12/30 12:24:25;;;;;;;537.95;183.18;;;;;;;;;;5015715;28;20396;-82
2021/12/30 12:26:52;;;;;;;562.55;195.60;;;;;;;;;;5033309;28;20354;-82
2021/12/30 12:29:23;;;;;;;576.00;195.50;;;;;;;;;;5015505;28;20032;-82
2021/12/30 12:31:54;;;;;;;563.92;197.32;;;;;;;;;;5033172;28;20071;-82
2021/12/30 12:34:33;;;;;;;562.22;193.40;;;;;;;;;;5015741;28;20033;-82
2021/12/30 12:36:59;;;;;;;719.22;230.77;;;;;;;;;;5033501;28;20108;-81
2021/12/30 12:39:38;;;;;;;781.88;247.18;;;;;;;;;;5015512;28;20029;-82
2021/12/30 12:42:06;;;;;;;751.38;238.73;;;;;;;;;;5015534;28;20045;-82
2021/12/30 12:44:33;;;;;;;653.47;220.02;;;;;;;;;;5033517;28;20033;-82
2021/12/30 12:47:01;;;;;;;693.35;238.93;;;;;;;;;;5015375;28;20164;-82
2021/12/30 12:49:33;;;;;;;689.25;244.60;;;;;;;;;;5015485;28;20030;-82
2021/12/30 12:51:59;;;;;;;1186.28;322.92;;;;;;;;;;5015490;28;20431;-82
2021/12/30 12:54:36;;;;;;;989.08;299.70;;;;;;;;;;5015394;28;20380;-82
2021/12/30 12:57:07;;;;;;;1106.63;308.45;;;;;;;;;;5033200;28;20034;-82
2021/12/30 12:59:37;;;;;;;877.08;285.15;;;;;;;;;;5015380;28;20040;-82
2021/12/30 13:02:03;;;;;;;1276.95;334.75;;;;;;;;;;5015184;28;20030;-82
2021/12/30 13:04:30;;;;;;;1177.53;318.50;;;;;;;;;;5015056;28;20465;-82
2021/12/30 13:06:59;;;;;;;1105.15;294.52;;;;;;;;;;5015076;28;20472;-83
2021/12/30 13:09:26;;;;;;;804.65;235.85;;;;;;;;;;5015471;28;20033;-82
2021/12/30 13:11:53;;;;;;;687.08;225.68;;;;;;;;;;5018687;28;20069;-82
2021/12/30 13:14:19;;;;;;;967.45;260.70;;;;;;;;;;5036687;28;20034;-82
2021/12/30 13:16:46;;;;;;;797.40;236.77;;;;;;;;;;5018626;28;20116;-82
2021/12/30 13:19:15;;;;;;;584.42;202.23;;;;;;;;;;5018725;28;20091;-82
2021/12/30 13:21:57;;;;;;;570.85;195.65;;;;;;;;;;5018524;28;20037;-82
2021/12/30 13:24:42;;;;;;;644.20;210.20;;;;;;;;;;5018597;28;20476;-82
2021/12/30 13:27:19;;;;;;;799.50;250.65;;;;;;;;;;5018523;28;20033;-82
2021/12/30 13:29:47;;;;;;;609.88;202.63;;;;;;;;;;5018546;28;20037;-82
2021/12/30 13:32:14;;;;;;;676.92;214.38;;;;;;;;;;5018147;28;20487;-82
2021/12/30 13:34:53;;;;;;;1053.60;286.42;;;;;;;;;;5018408;28;20518;-82
2021/12/30 13:37:20;;;;;;;913.20;264.40;;;;;;;;;;5018300;28;20026;-82
2021/12/30 13:39:47;;;;;;;618.00;208.13;;;;;;;;;;5018351;28;20083;-82
2021/12/30 13:42:17;;;;;;;982.10;247.20;;;;;;;;;;5036005;28;20072;-82
2021/12/30 13:44:45;;;;;;;839.53;242.63;;;;;;;;;;5018189;28;20033;-82
2021/12/30 13:47:19;;;;;;;799.17;247.20;;;;;;;;;;5018111;28;20079;-82
2021/12/30 13:49:46;;;;;;;981.05;281.08;;;;;;;;;;5018015;28;20088;-82
2021/12/30 13:52:13;;;;;;;671.22;220.20;;;;;;;;;;5018011;28;20040;-82
2021/12/30 13:54:39;;;;;;;993.85;289.10;;;;;;;;;;5017967;28;20033;-82
2021/12/30 13:57:05;;;;;;;604.95;209.27;;;;;;;;;;5017661;28;20030;-82
2021/12/30 13:59:32;;;;;;;1003.63;282.02;;;;;;;;;;5017929;28;20029;-82
2021/12/30 14:02:09;;;;;;;610.30;213.15;;;;;;;;;;5017836;28;20064;-82
2021/12/30 14:04:39;;;;;;;1481.22;345.73;;;;;;;;;;5018391;28;20034;-82
2021/12/30 14:07:06;;;;;;;628.63;202.60;;;;;;;;;;5017753;28;20037;-82
2021/12/30 14:09:33;;;;;;;846.78;250.82;;;;;;;;;;5017568;28;20033;-82
2021/12/30 14:12:08;;;;;;;566.05;203.13;;;;;;;;;;5017691;28;20038;-82